Time;durP1;ratioP1;P1;durP2;ratioP2;P2;SDS_P1;SDS_P2;PMS_P1;PMS_P2;Temp;Humidity;BMP_temperature;BMP_pressure;BME280_temperature;BME280_humidity;BME280_pressure;Samples;Min_cycle;Max_cycle;Signal;HPM_P1;HPM_P2
2020/12/25 00:02:06;;;;;;;11.43;8.57;;;23.10;54.80;;;;;;5093403;28;20188;-73
2020/12/25 00:04:31;;;;;;;11.20;9.87;;;23.10;54.80;;;;;;5093196;28;20170;-73
2020/12/25 00:06:57;;;;;;;9.70;8.30;;;23.10;54.90;;;;;;5093077;28;20484;-72
2020/12/25 00:09:22;;;;;;;9.07;7.23;;;23.10;54.80;;;;;;5093375;28;20197;-73
2020/12/25 00:11:48;;;;;;;10.77;9.10;;;23.10;54.90;;;;;;5093368;28;20170;-73
2020/12/25 00:14:14;;;;;;;8.23;7.00;;;23.10;55.40;;;;;;5093107;28;20182;-73
2020/12/25 00:16:39;;;;;;;10.43;8.43;;;23.10;54.90;;;;;;5092933;28;20269;-73
2020/12/25 00:19:05;;;;;;;13.83;9.70;;;23.10;54.90;;;;;;5093535;28;20154;-73
2020/12/25 00:21:32;;;;;;;12.73;8.97;;;23.10;54.90;;;;;;5093019;28;20177;-73
2020/12/25 00:23:58;;;;;;;12.40;9.53;;;23.10;54.90;;;;;;5092992;28;20166;-73
2020/12/25 00:26:26;;;;;;;12.30;8.47;;;23.10;54.90;;;;;;5092832;28;20463;-73
2020/12/25 00:28:52;;;;;;;12.07;8.53;;;23.10;54.90;;;;;;5095776;28;20411;-73
2020/12/25 00:31:29;;;;;;;9.80;8.50;;;23.10;54.90;;;;;;5097300;28;20439;-73
2020/12/25 00:33:59;;;;;;;9.13;7.60;;;23.10;54.90;;;;;;5096953;28;20492;-72
2020/12/25 00:36:29;;;;;;;12.10;8.10;;;23.00;54.90;;;;;;5097243;28;20894;-73
2020/12/25 00:38:56;;;;;;;9.77;8.77;;;23.00;54.90;;;;;;5096867;28;20423;-73
2020/12/25 00:41:23;;;;;;;8.30;7.17;;;23.00;54.90;;;;;;5096814;28;20415;-73
2020/12/25 00:43:48;;;;;;;11.07;7.80;;;23.00;54.90;;;;;;5096826;28;20419;-73
2020/12/25 00:46:15;;;;;;;10.40;7.70;;;23.00;54.90;;;;;;5096707;28;20443;-73
2020/12/25 00:48:41;;;;;;;10.30;7.60;;;23.00;54.90;;;;;;5096997;28;20208;-73
2020/12/25 00:51:21;;;;;;;12.37;7.43;;;23.00;54.90;;;;;;5096869;28;20455;-73
2020/12/25 00:53:47;;;;;;;8.70;7.53;;;23.00;54.90;;;;;;5096652;28;20181;-73
2020/12/25 00:56:14;;;;;;;7.60;6.27;;;23.00;54.90;;;;;;5096439;28;20501;-73
2020/12/25 00:58:40;;;;;;;9.97;8.27;;;23.00;54.90;;;;;;5096582;28;20866;-73
2020/12/25 01:01:09;;;;;;;10.33;8.33;;;23.00;54.90;;;;;;5096748;28;20774;-73
2020/12/25 01:03:36;;;;;;;10.73;7.10;;;23.00;55.00;;;;;;5096664;28;20724;-73
2020/12/25 01:06:08;;;;;;;13.70;8.37;;;23.00;54.90;;;;;;5096366;28;20431;-73
2020/12/25 01:08:33;;;;;;;10.20;8.33;;;22.90;54.90;;;;;;5096390;28;20430;-73
2020/12/25 01:10:59;;;;;;;11.97;8.07;;;23.00;55.00;;;;;;5096275;28;20969;-73
2020/12/25 01:13:24;;;;;;;10.23;7.80;;;22.90;54.80;;;;;;5094984;28;20253;-73
2020/12/25 01:15:50;;;;;;;11.17;7.83;;;22.90;54.80;;;;;;5096209;28;20202;-73
2020/12/25 01:18:16;;;;;;;14.20;9.30;;;22.90;54.90;;;;;;5094897;28;20209;-73
2020/12/25 01:20:41;;;;;;;10.90;7.53;;;22.90;54.90;;;;;;5096182;28;20177;-73
2020/12/25 01:23:07;;;;;;;9.90;7.10;;;22.90;54.90;;;;;;5096386;28;20197;-73
2020/12/25 01:25:32;;;;;;;10.63;7.13;;;22.90;55.50;;;;;;5096014;28;20664;-73
2020/12/25 01:27:58;;;;;;;11.30;8.80;;;22.90;54.90;;;;;;5096233;28;20184;-73
2020/12/25 01:30:24;;;;;;;10.17;8.43;;;22.90;54.90;;;;;;5095803;28;20319;-73
2020/12/25 01:32:49;;;;;;;11.13;8.50;;;22.90;54.90;;;;;;5095954;28;20214;-73
2020/12/25 01:35:15;;;;;;;8.83;7.70;;;22.90;54.90;;;;;;5095669;28;20177;-73
2020/12/25 01:37:41;;;;;;;11.40;7.80;;;22.90;54.90;;;;;;5095902;28;20166;-73
2020/12/25 01:40:06;;;;;;;9.70;7.50;;;22.90;54.90;;;;;;5095391;28;20184;-73
2020/12/25 01:42:34;;;;;;;8.97;7.00;;;22.90;54.90;;;;;;5096242;28;20182;-73
2020/12/25 01:45:01;;;;;;;11.13;7.43;;;22.90;54.90;;;;;;5095663;28;20697;-73
2020/12/25 01:47:26;;;;;;;11.47;8.47;;;22.90;54.90;;;;;;5095598;28;20439;-73
2020/12/25 01:49:52;;;;;;;10.77;7.13;;;22.90;54.90;;;;;;5095550;28;20456;-73
2020/12/25 01:52:18;;;;;;;10.40;7.10;;;22.90;54.90;;;;;;5094267;28;20527;-73
2020/12/25 01:54:46;;;;;;;9.80;6.87;;;22.90;54.90;;;;;;5095506;28;20407;-73
2020/12/25 01:57:13;;;;;;;10.47;6.87;;;22.80;54.90;;;;;;5095861;28;20484;-73
2020/12/25 01:59:39;;;;;;;7.30;6.47;;;22.80;54.80;;;;;;5095440;28;20411;-73
2020/12/25 02:02:06;;;;;;;11.50;8.10;;;22.80;54.80;;;;;;5095658;28;20431;-73
2020/12/25 02:04:32;;;;;;;7.70;6.40;;;22.90;54.90;;;;;;5095512;28;20772;-73
2020/12/25 02:06:58;;;;;;;9.93;7.30;;;22.80;54.80;;;;;;5095216;28;20424;-73
2020/12/25 02:09:23;;;;;;;10.33;7.60;;;22.80;54.80;;;;;;5095108;28;20169;-73
2020/12/25 02:11:49;;;;;;;10.30;6.87;;;22.80;54.80;;;;;;5095482;28;20246;-73
2020/12/25 02:14:15;;;;;;;12.90;7.00;;;22.80;54.80;;;;;;5095415;28;20207;-73
2020/12/25 02:16:41;;;;;;;7.47;6.50;;;22.80;54.80;;;;;;5094753;28;20193;-73
2020/12/25 02:19:10;;;;;;;9.00;6.63;;;22.80;54.90;;;;;;5095088;28;20633;-73
2020/12/25 02:21:36;;;;;;;9.77;7.50;;;22.80;54.80;;;;;;5094987;28;20197;-73
2020/12/25 02:24:03;;;;;;;8.10;6.43;;;22.80;54.80;;;;;;5095213;28;20420;-73
2020/12/25 02:26:29;;;;;;;9.73;7.67;;;22.80;54.90;;;;;;5094823;28;20664;-73
2020/12/25 02:28:55;;;;;;;9.60;6.83;;;22.80;54.90;;;;;;5094928;28;20408;-73
2020/12/25 02:31:20;;;;;;;10.77;8.40;;;22.80;54.90;;;;;;5094981;28;20799;-73
2020/12/25 02:33:46;;;;;;;10.90;7.60;;;22.80;54.90;;;;;;5094753;28;20192;-73
2020/12/25 02:36:11;;;;;;;9.40;7.30;;;22.80;54.90;;;;;;5094757;28;20612;-73
2020/12/25 02:38:37;;;;;;;8.57;6.00;;;22.80;54.90;;;;;;5094943;28;20705;-73
2020/12/25 02:41:03;;;;;;;9.40;6.73;;;22.80;54.90;;;;;;5094642;28;20274;-73
2020/12/25 02:43:28;;;;;;;9.47;5.93;;;22.80;54.90;;;;;;5094805;28;20182;-73
2020/12/25 02:45:54;;;;;;;10.23;7.20;;;22.80;54.90;;;;;;5094456;28;20197;-72
2020/12/25 02:48:19;;;;;;;8.90;6.40;;;22.80;55.00;;;;;;5094589;28;20196;-73
2020/12/25 02:50:45;;;;;;;9.07;5.90;;;22.80;54.90;;;;;;5093357;28;20284;-73
2020/12/25 02:53:10;;;;;;;7.63;6.63;;;22.80;55.10;;;;;;5094387;28;20640;-73
2020/12/25 02:55:36;;;;;;;10.00;6.80;;;22.80;54.90;;;;;;5094431;28;20194;-73
2020/12/25 02:58:02;;;;;;;9.43;6.67;;;22.80;54.90;;;;;;5094311;28;20181;-72
2020/12/25 03:00:28;;;;;;;8.57;6.20;;;22.80;54.90;;;;;;5094221;28;20438;-73
2020/12/25 03:02:53;;;;;;;8.90;7.17;;;22.80;54.90;;;;;;5094226;28;20169;-73
2020/12/25 03:05:19;;;;;;;7.57;6.47;;;22.80;54.90;;;;;;5094109;28;20170;-73
2020/12/25 03:07:44;;;;;;;8.20;5.90;;;22.80;54.90;;;;;;5094067;28;20247;-73
2020/12/25 03:10:10;;;;;;;13.20;7.37;;;22.80;54.90;;;;;;5094320;28;20268;-73
2020/12/25 03:12:35;;;;;;;8.30;5.50;;;22.80;54.90;;;;;;5094045;28;20170;-73
2020/12/25 03:15:01;;;;;;;9.10;6.13;;;22.70;54.80;;;;;;5094247;28;20276;-73
2020/12/25 03:17:27;;;;;;;9.00;6.47;;;22.70;54.80;;;;;;5093932;28;20182;-73
2020/12/25 03:19:52;;;;;;;8.23;6.80;;;22.80;55.00;;;;;;5093894;28;20663;-73
2020/12/25 03:22:18;;;;;;;8.10;6.13;;;22.70;54.90;;;;;;5093861;28;20174;-73
2020/12/25 03:24:43;;;;;;;7.83;6.20;;;22.70;54.90;;;;;;5094072;28;20696;-73
2020/12/25 03:27:09;;;;;;;8.80;5.93;;;22.70;54.90;;;;;;5093691;28;20264;-73
2020/12/25 03:29:34;;;;;;;10.27;6.60;;;22.70;54.90;;;;;;5093503;28;20679;-73
2020/12/25 03:32:00;;;;;;;8.13;6.50;;;22.70;54.90;;;;;;5093688;28;20176;-73
2020/12/25 03:34:28;;;;;;;6.47;5.87;;;22.70;54.90;;;;;;5094232;28;20283;-73
2020/12/25 03:36:54;;;;;;;6.53;5.90;;;22.70;54.90;;;;;;5093888;28;20189;-73
2020/12/25 03:39:20;;;;;;;7.23;5.70;;;22.70;54.90;;;;;;5093636;28;20494;-73
2020/12/25 03:41:46;;;;;;;8.10;6.23;;;22.70;54.90;;;;;;5093489;28;20484;-73
2020/12/25 03:44:11;;;;;;;7.60;5.33;;;22.70;54.90;;;;;;5093501;28;20170;-73
2020/12/25 03:46:37;;;;;;;7.23;5.90;;;22.70;54.90;;;;;;5093430;28;20246;-73
2020/12/25 03:49:05;;;;;;;7.97;6.10;;;22.70;54.90;;;;;;5093433;28;20232;-73
2020/12/25 03:51:30;;;;;;;6.83;5.70;;;22.70;54.90;;;;;;5093313;28;20443;-73
2020/12/25 03:53:56;;;;;;;8.63;5.60;;;22.70;54.90;;;;;;5093846;28;20416;-73
2020/12/25 03:56:22;;;;;;;7.00;5.80;;;22.70;54.90;;;;;;5093430;28;20221;-73
2020/12/25 03:58:48;;;;;;;7.57;6.47;;;22.70;54.90;;;;;;5093268;28;20252;-73
2020/12/25 04:01:14;;;;;;;8.03;5.80;;;22.70;54.90;;;;;;5093524;28;20447;-73
2020/12/25 04:03:39;;;;;;;7.70;5.80;;;22.60;54.90;;;;;;5093114;28;20223;-73
2020/12/25 04:06:05;;;;;;;8.97;5.50;;;22.60;54.90;;;;;;5093105;28;20423;-73
2020/12/25 04:08:30;;;;;;;9.30;5.97;;;22.60;54.90;;;;;;5093177;28;20199;-73
2020/12/25 04:10:56;;;;;;;9.70;6.40;;;22.60;54.90;;;;;;5093060;28;20724;-73
2020/12/25 04:13:22;;;;;;;7.53;6.07;;;22.60;54.90;;;;;;5093145;28;20196;-73
2020/12/25 04:15:48;;;;;;;7.63;5.70;;;22.60;54.90;;;;;;5093255;28;20196;-73
2020/12/25 04:18:14;;;;;;;7.53;5.87;;;22.60;54.90;;;;;;5093119;28;20174;-73
2020/12/25 04:20:39;;;;;;;7.23;5.27;;;22.60;54.90;;;;;;5093182;28;20813;-73
2020/12/25 04:23:05;;;;;;;8.07;5.93;;;22.60;54.90;;;;;;5093306;28;20161;-73
2020/12/25 04:25:30;;;;;;;7.73;6.10;;;22.60;54.90;;;;;;5091656;28;20211;-73
2020/12/25 04:27:56;;;;;;;6.77;5.90;;;22.60;55.00;;;;;;5093039;28;20636;-73
2020/12/25 04:30:22;;;;;;;7.40;5.43;;;22.60;54.90;;;;;;5092768;28;20205;-73
2020/12/25 04:32:47;;;;;;;8.80;5.63;;;22.60;54.90;;;;;;5093172;28;20640;-73
2020/12/25 04:35:13;;;;;;;7.80;5.87;;;22.60;54.90;;;;;;5093145;28;20170;-72
2020/12/25 04:37:38;;;;;;;7.07;6.07;;;22.60;54.90;;;;;;5092866;28;20180;-73
2020/12/25 04:40:05;;;;;;;8.27;6.00;;;22.60;54.90;;;;;;5092845;28;20181;-73
2020/12/25 04:42:34;;;;;;;6.97;5.40;;;22.60;54.90;;;;;;5092899;28;20169;-73
2020/12/25 04:44:59;;;;;;;6.20;5.30;;;22.60;55.00;;;;;;5092607;28;20411;-73
2020/12/25 04:47:25;;;;;;;8.43;5.43;;;22.60;55.00;;;;;;5092688;28;20424;-73
2020/12/25 04:49:51;;;;;;;7.33;5.53;;;22.60;55.00;;;;;;5092674;28;20541;-73
2020/12/25 04:52:16;;;;;;;6.87;5.57;;;22.50;54.90;;;;;;5092785;28;20162;-73
2020/12/25 04:54:42;;;;;;;8.20;5.63;;;22.50;54.90;;;;;;5092988;28;20169;-73
2020/12/25 04:57:08;;;;;;;8.00;5.50;;;22.50;54.90;;;;;;5093169;28;20190;-73
2020/12/25 04:59:33;;;;;;;7.00;5.77;;;22.50;55.00;;;;;;5092930;28;20177;-73
2020/12/25 05:02:02;;;;;;;8.13;5.30;;;22.50;55.00;;;;;;5092951;28;20162;-73
2020/12/25 05:04:28;;;;;;;6.83;5.50;;;22.50;55.00;;;;;;5092648;28;20208;-73
2020/12/25 05:06:54;;;;;;;6.57;5.40;;;22.50;55.10;;;;;;5092576;28;20424;-73
2020/12/25 05:09:25;;;;;;;7.13;5.30;;;22.50;55.10;;;;;;5092746;28;20693;-73
2020/12/25 05:11:53;;;;;;;5.77;4.53;;;22.50;55.00;;;;;;5092463;28;20542;-73
2020/12/25 05:14:19;;;;;;;9.17;6.10;;;22.50;55.10;;;;;;5094260;28;20767;-73
2020/12/25 05:16:47;;;;;;;6.67;4.63;;;22.40;55.00;;;;;;5096126;28;20953;-73
2020/12/25 05:19:14;;;;;;;6.97;4.90;;;22.40;55.50;;;;;;5096226;28;20423;-73
2020/12/25 05:21:40;;;;;;;6.67;5.43;;;22.40;55.00;;;;;;5095130;28;20415;-73
2020/12/25 05:24:07;;;;;;;6.13;5.40;;;22.50;55.10;;;;;;5096118;28;20412;-73
2020/12/25 05:26:34;;;;;;;8.10;5.90;;;22.50;55.10;;;;;;5096255;28;20423;-73
2020/12/25 05:29:00;;;;;;;6.40;5.30;;;22.40;55.00;;;;;;5095932;28;20407;-73
2020/12/25 05:31:26;;;;;;;8.30;5.80;;;22.50;55.00;;;;;;5096221;28;20443;-73
2020/12/25 05:33:55;;;;;;;7.80;5.10;;;22.50;55.00;;;;;;5095920;28;20426;-73
2020/12/25 05:36:27;;;;;;;8.33;5.93;;;22.50;55.00;;;;;;5095952;28;20277;-73
2020/12/25 05:38:53;;;;;;;5.67;5.00;;;22.50;55.00;;;;;;5094645;28;20400;-73
2020/12/25 05:41:19;;;;;;;5.70;5.07;;;22.50;55.00;;;;;;5096084;28;20422;-73
2020/12/25 05:43:52;;;;;;;6.83;5.00;;;22.50;54.90;;;;;;5095734;28;20174;-73
2020/12/25 05:46:18;;;;;;;7.03;4.80;;;22.60;55.00;;;;;;5095544;28;20202;-73
2020/12/25 05:48:49;;;;;;;5.93;4.43;;;22.50;54.90;;;;;;5095962;28;20767;-73
2020/12/25 05:51:14;;;;;;;4.90;4.40;;;22.60;55.00;;;;;;5095503;28;20885;-73
2020/12/25 05:53:44;;;;;;;7.00;4.90;;;22.60;54.90;;;;;;5095624;28;20418;-73
2020/12/25 05:56:10;;;;;;;5.80;4.57;;;22.60;54.90;;;;;;5095692;28;20193;-73
2020/12/25 05:58:42;;;;;;;4.80;4.40;;;22.60;54.90;;;;;;5095632;28;20541;-73
2020/12/25 06:01:09;;;;;;;7.10;5.03;;;22.60;54.90;;;;;;5095985;28;20162;-73
2020/12/25 06:03:37;;;;;;;6.63;4.50;;;22.60;54.80;;;;;;5095368;28;20416;-73
2020/12/25 06:06:11;;;;;;;5.77;4.67;;;22.60;54.80;;;;;;5095470;28;20503;-73
2020/12/25 06:08:47;;;;;;;6.83;4.93;;;22.70;54.90;;;;;;5095473;28;20415;-72
2020/12/25 06:11:15;;;;;;;6.43;4.43;;;22.70;54.90;;;;;;5095136;28;20443;-73
2020/12/25 06:13:42;;;;;;;5.00;4.20;;;22.70;54.90;;;;;;5095381;28;20446;-73
2020/12/25 06:16:21;;;;;;;6.50;4.87;;;22.70;54.80;;;;;;5094945;28;20427;-73
2020/12/25 06:19:06;;;;;;;5.87;4.30;;;22.70;54.80;;;;;;5095119;28;20419;-73
2020/12/25 06:22:00;;;;;;;5.63;4.50;;;22.70;54.80;;;;;;5093999;28;20492;-73
2020/12/25 06:24:31;;;;;;;6.50;4.80;;;22.70;54.80;;;;;;5094997;28;20837;-73
2020/12/25 06:27:03;;;;;;;7.57;5.10;;;22.70;54.80;;;;;;5094166;28;20961;-73
2020/12/25 06:29:29;;;;;;;5.00;4.00;;;22.70;54.80;;;;;;5094669;28;20427;-73
2020/12/25 06:31:57;;;;;;;6.13;4.53;;;22.70;54.80;;;;;;5094757;28;20588;-73
2020/12/25 06:34:38;;;;;;;5.07;4.30;;;22.70;54.80;;;;;;5095021;28;20176;-73
2020/12/25 06:37:08;;;;;;;5.43;4.50;;;22.70;54.70;;;;;;5094612;28;20426;-73
2020/12/25 06:39:33;;;;;;;6.50;4.40;;;22.70;54.80;;;;;;5094718;28;20471;-73
2020/12/25 06:41:59;;;;;;;5.53;4.40;;;22.70;54.80;;;;;;5093540;28;20412;-73
2020/12/25 06:44:29;;;;;;;5.83;4.47;;;22.70;54.70;;;;;;5094587;28;20170;-73
2020/12/25 06:47:02;;;;;;;5.17;4.27;;;22.70;54.70;;;;;;5094605;28;20242;-73
2020/12/25 06:49:35;;;;;;;6.30;4.10;;;22.70;54.70;;;;;;5094774;28;20406;-73
2020/12/25 06:52:01;;;;;;;5.70;5.10;;;22.70;54.70;;;;;;5094751;28;20396;-73
2020/12/25 06:54:26;;;;;;;6.77;4.47;;;22.70;54.70;;;;;;5094639;28;20760;-73
2020/12/25 06:56:57;;;;;;;5.30;4.00;;;22.70;54.70;;;;;;5093309;28;20229;-73
2020/12/25 06:59:23;;;;;;;6.90;4.80;;;22.70;54.70;;;;;;5094217;28;20598;-73
2020/12/25 07:01:50;;;;;;;6.90;4.63;;;22.70;54.70;;;;;;5094233;28;20813;-73
2020/12/25 07:04:29;;;;;;;9.00;5.10;;;22.70;54.70;;;;;;5094430;28;20461;-73
2020/12/25 07:07:03;;;;;;;5.80;4.20;;;22.80;54.70;;;;;;5094280;28;20431;-73
2020/12/25 07:09:48;;;;;;;5.00;3.87;;;22.80;54.70;;;;;;5094398;28;20383;-73
2020/12/25 07:12:20;;;;;;;5.17;4.07;;;22.80;54.70;;;;;;5093841;28;20447;-73
2020/12/25 07:14:47;;;;;;;5.83;4.13;;;22.80;54.70;;;;;;5094286;28;20376;-71
2020/12/25 07:17:13;;;;;;;5.73;4.77;;;22.80;54.70;;;;;;5093871;28;20929;-73
2020/12/25 07:19:39;;;;;;;5.50;3.90;;;22.80;54.70;;;;;;5094261;28;20461;-73
2020/12/25 07:22:06;;;;;;;5.23;4.10;;;22.80;54.70;;;;;;5094139;28;20205;-73
2020/12/25 07:24:32;;;;;;;5.90;4.50;;;22.80;54.60;;;;;;5094382;28;20818;-73
2020/12/25 07:26:57;;;;;;;6.40;4.43;;;22.80;54.60;;;;;;5092392;28;20471;-73
2020/12/25 07:29:23;;;;;;;5.90;4.30;;;22.80;54.60;;;;;;5093729;28;20271;-73
2020/12/25 07:31:51;;;;;;;7.43;4.53;;;22.80;54.60;;;;;;5093897;28;20691;-73
2020/12/25 07:34:25;;;;;;;5.30;4.60;;;22.90;54.60;;;;;;5094431;28;20517;-73
2020/12/25 07:36:54;;;;;;;6.83;3.87;;;22.90;54.60;;;;;;5093155;28;20990;-73
2020/12/25 07:39:21;;;;;;;5.73;4.40;;;22.90;54.60;;;;;;5092438;28;20404;-73
2020/12/25 07:41:47;;;;;;;4.70;3.80;;;22.90;54.60;;;;;;5093529;28;20772;-73
2020/12/25 07:44:13;;;;;;;5.17;4.03;;;22.90;54.60;;;;;;5093502;28;20411;-73
2020/12/25 07:46:39;;;;;;;6.07;4.33;;;22.90;54.60;;;;;;5093416;28;20423;-73
2020/12/25 07:49:06;;;;;;;5.23;4.00;;;22.90;54.60;;;;;;5093417;28;20648;-73
2020/12/25 07:51:32;;;;;;;4.70;4.30;;;22.90;54.50;;;;;;5093323;28;20455;-73
2020/12/25 07:54:00;;;;;;;4.80;3.40;;;23.00;54.60;;;;;;5093394;28;20914;-73
2020/12/25 07:56:29;;;;;;;4.80;4.30;;;22.90;54.50;;;;;;5093420;28;20431;-73
2020/12/25 07:58:55;;;;;;;3.87;3.43;;;22.90;54.50;;;;;;5093338;28;20745;-73
2020/12/25 08:01:25;;;;;;;4.47;4.07;;;22.90;54.50;;;;;;5093232;28;20412;-73
2020/12/25 08:03:51;;;;;;;5.20;3.70;;;22.90;54.50;;;;;;5093232;28;20502;-73
2020/12/25 08:06:22;;;;;;;4.10;3.47;;;23.00;54.60;;;;;;5093094;28;20427;-73
2020/12/25 08:09:09;;;;;;;5.37;3.93;;;23.00;54.60;;;;;;5093347;28;20457;-73
2020/12/25 08:11:36;;;;;;;4.37;3.60;;;23.00;55.10;;;;;;5092477;28;20459;-73
2020/12/25 08:14:10;;;;;;;4.23;3.50;;;23.00;54.60;;;;;;5093052;28;20403;-73
2020/12/25 08:16:42;;;;;;;4.20;3.27;;;23.00;54.60;;;;;;5093102;28;20423;-73
2020/12/25 08:19:07;;;;;;;3.90;3.30;;;23.00;54.60;;;;;;5093318;28;20868;-73
2020/12/25 08:21:34;;;;;;;4.70;3.50;;;23.00;54.60;;;;;;5093160;28;20499;-73
2020/12/25 08:24:05;;;;;;;5.50;3.77;;;23.00;54.60;;;;;;5093289;28;20162;-73
2020/12/25 08:26:37;;;;;;;3.93;3.37;;;23.00;54.60;;;;;;5093186;28;20466;-73
2020/12/25 08:29:03;;;;;;;4.97;3.43;;;23.00;54.60;;;;;;5092948;28;20451;-73
2020/12/25 08:31:37;;;;;;;4.57;3.77;;;23.00;54.60;;;;;;5093085;28;20455;-73
2020/12/25 08:34:05;;;;;;;4.37;3.47;;;23.00;54.50;;;;;;5092865;28;20494;-73
2020/12/25 08:36:31;;;;;;;4.93;4.23;;;23.00;54.50;;;;;;5092782;28;20514;-73
2020/12/25 08:38:57;;;;;;;4.13;3.20;;;23.00;54.60;;;;;;5091279;28;20444;-73
2020/12/25 08:41:27;;;;;;;4.63;3.50;;;23.00;54.50;;;;;;5092848;28;20446;-72
2020/12/25 08:43:53;;;;;;;3.37;3.07;;;23.00;54.50;;;;;;5093049;28;20177;-73
2020/12/25 08:46:33;;;;;;;4.17;3.17;;;23.00;55.10;;;;;;5092739;28;20934;-73
2020/12/25 08:48:59;;;;;;;4.97;3.80;;;23.00;54.50;;;;;;5094052;28;20434;-72
2020/12/25 08:51:31;;;;;;;4.33;3.27;;;23.00;54.60;;;;;;5097104;28;20455;-73
2020/12/25 08:53:57;;;;;;;4.80;3.60;;;23.00;54.60;;;;;;5096952;28;20490;-73
2020/12/25 08:56:26;;;;;;;5.37;4.57;;;23.00;54.60;;;;;;5096801;28;20558;-73
2020/12/25 08:59:05;;;;;;;4.73;3.70;;;23.00;54.60;;;;;;5096624;28;20542;-73
2020/12/25 09:01:36;;;;;;;4.53;3.40;;;23.00;54.50;;;;;;5096969;28;20440;-73
2020/12/25 09:04:03;;;;;;;4.83;3.00;;;23.00;54.60;;;;;;5096459;28;20407;-72
2020/12/25 09:06:29;;;;;;;5.93;3.90;;;23.00;55.10;;;;;;5096322;28;21003;-72
2020/12/25 09:08:55;;;;;;;4.10;3.37;;;23.00;54.60;;;;;;5096427;28;20423;-73
2020/12/25 09:11:24;;;;;;;4.70;3.13;;;23.00;54.50;;;;;;5096120;28;20209;-73
2020/12/25 09:13:51;;;;;;;4.40;3.80;;;23.00;54.50;;;;;;5096232;28;20407;-73
2020/12/25 09:16:17;;;;;;;5.83;3.37;;;23.00;54.50;;;;;;5096496;28;20549;-72
2020/12/25 09:18:43;;;;;;;3.43;3.07;;;23.00;54.50;;;;;;5094842;28;20463;-73
2020/12/25 09:21:14;;;;;;;4.13;3.47;;;23.00;54.50;;;;;;5096235;28;20492;-73
2020/12/25 09:23:40;;;;;;;4.17;3.10;;;23.00;54.50;;;;;;5095903;28;20415;-72
2020/12/25 09:26:08;;;;;;;3.80;2.90;;;23.00;54.50;;;;;;5096159;28;20798;-72
2020/12/25 09:28:35;;;;;;;4.80;3.27;;;23.00;55.00;;;;;;5096275;28;20893;-73
2020/12/25 09:31:03;;;;;;;4.37;3.20;;;23.00;54.50;;;;;;5095746;28;20471;-73
2020/12/25 09:33:29;;;;;;;4.50;3.47;;;23.10;54.50;;;;;;5095895;28;20412;-73
2020/12/25 09:35:54;;;;;;;3.97;3.13;;;23.10;54.50;;;;;;5095770;28;20434;-72
2020/12/25 09:38:20;;;;;;;3.83;2.67;;;23.10;54.50;;;;;;5095871;28;20581;-72
2020/12/25 09:40:50;;;;;;;4.53;3.60;;;23.10;54.50;;;;;;5095772;28;20174;-72
2020/12/25 09:43:16;;;;;;;3.13;2.83;;;23.10;54.50;;;;;;5096050;28;20666;-73
2020/12/25 09:45:42;;;;;;;3.93;3.50;;;23.10;54.50;;;;;;5095865;28;20530;-73
2020/12/25 09:48:07;;;;;;;5.23;3.43;;;23.10;54.50;;;;;;5095884;28;20253;-72
2020/12/25 09:50:33;;;;;;;3.27;2.97;;;23.10;54.50;;;;;;5095554;28;20229;-72
2020/12/25 09:52:58;;;;;;;4.00;2.90;;;23.10;54.50;;;;;;5095526;28;20256;-72
2020/12/25 09:55:26;;;;;;;3.67;2.83;;;23.10;54.50;;;;;;5094186;28;20176;-73
2020/12/25 09:57:51;;;;;;;4.77;3.17;;;23.10;54.50;;;;;;5095911;28;20690;-72
2020/12/25 10:00:17;;;;;;;5.53;3.13;;;23.10;54.50;;;;;;5095071;28;20447;-72
2020/12/25 10:02:43;;;;;;;4.40;4.00;;;23.10;55.10;;;;;;5094048;28;20327;-72
2020/12/25 10:05:10;;;;;;;3.70;2.83;;;23.10;54.50;;;;;;5095677;28;20165;-72
2020/12/25 10:07:37;;;;;;;4.83;3.53;;;23.10;54.50;;;;;;5095542;28;20669;-72
2020/12/25 10:10:04;;;;;;;5.43;2.50;;;23.10;54.50;;;;;;5095418;28;20934;-72
2020/12/25 10:12:30;;;;;;;3.73;3.20;;;23.10;54.50;;;;;;5095400;28;20761;-72
2020/12/25 10:14:56;;;;;;;3.43;2.53;;;23.10;54.50;;;;;;5095087;28;20399;-73
2020/12/25 10:17:21;;;;;;;4.10;3.07;;;23.10;54.50;;;;;;5095028;28;20246;-73
2020/12/25 10:19:47;;;;;;;3.50;3.07;;;23.10;54.50;;;;;;5095280;28;20624;-72
2020/12/25 10:22:13;;;;;;;3.00;2.80;;;23.10;54.50;;;;;;5095049;28;20727;-73
2020/12/25 10:24:39;;;;;;;3.63;2.73;;;23.10;54.50;;;;;;5095151;28;20408;-72
2020/12/25 10:27:11;;;;;;;4.63;3.30;;;23.10;54.50;;;;;;5094871;28;20435;-73
2020/12/25 10:29:36;;;;;;;3.10;2.47;;;23.10;54.40;;;;;;5095037;28;20189;-73
2020/12/25 10:32:02;;;;;;;4.77;2.57;;;23.10;54.40;;;;;;5094736;28;20558;-73
2020/12/25 10:34:27;;;;;;;5.63;2.40;;;23.10;54.40;;;;;;5094778;28;20173;-72
2020/12/25 10:36:53;;;;;;;3.37;3.00;;;23.10;54.40;;;;;;5094584;28;20246;-72
2020/12/25 10:39:19;;;;;;;3.43;2.90;;;23.10;54.40;;;;;;5094704;28;20173;-73
2020/12/25 10:41:44;;;;;;;3.80;3.10;;;23.10;54.50;;;;;;5094978;28;20532;-72
2020/12/25 10:44:10;;;;;;;4.27;2.77;;;23.00;54.40;;;;;;5094567;28;20181;-72
2020/12/25 10:46:36;;;;;;;4.10;2.70;;;23.10;54.40;;;;;;5095042;28;20550;-72
2020/12/25 10:49:04;;;;;;;4.50;3.17;;;23.10;54.50;;;;;;5094719;28;20534;-72
2020/12/25 10:51:30;;;;;;;3.33;2.97;;;23.10;54.50;;;;;;5094656;28;20825;-72
2020/12/25 10:53:55;;;;;;;2.77;2.57;;;23.00;54.40;;;;;;5094353;28;20404;-73
2020/12/25 10:56:27;;;;;;;4.57;2.90;;;23.00;54.40;;;;;;5094412;28;20196;-73
2020/12/25 10:58:54;;;;;;;3.40;2.70;;;23.00;54.40;;;;;;5094523;28;20177;-72
2020/12/25 11:01:23;;;;;;;3.50;2.63;;;23.00;54.40;;;;;;5092965;28;20447;-72
2020/12/25 11:03:49;;;;;;;5.63;2.67;;;23.00;54.40;;;;;;5094425;28;20422;-72
2020/12/25 11:06:15;;;;;;;3.63;3.33;;;23.00;54.40;;;;;;5094366;28;20431;-73
2020/12/25 11:08:40;;;;;;;3.53;2.70;;;23.00;54.50;;;;;;5094399;28;20255;-73
2020/12/25 11:11:06;;;;;;;4.77;2.70;;;23.00;54.50;;;;;;5093910;28;20264;-73
2020/12/25 11:13:35;;;;;;;2.93;2.60;;;23.00;54.50;;;;;;5093758;28;20188;-73
2020/12/25 11:16:00;;;;;;;2.63;2.30;;;23.10;54.50;;;;;;5094491;28;20718;-73
2020/12/25 11:18:26;;;;;;;4.83;3.03;;;23.00;54.50;;;;;;5094302;28;20422;-72
2020/12/25 11:20:51;;;;;;;3.40;2.67;;;23.00;54.50;;;;;;5094170;28;20169;-72
2020/12/25 11:23:17;;;;;;;6.27;3.43;;;23.00;54.40;;;;;;5093879;28;20201;-73
2020/12/25 11:25:43;;;;;;;5.03;2.70;;;23.00;54.40;;;;;;5093954;28;20216;-72
2020/12/25 11:28:08;;;;;;;3.00;2.70;;;23.00;54.90;;;;;;5094037;28;20174;-72
2020/12/25 11:30:34;;;;;;;4.93;2.70;;;23.00;54.30;;;;;;5093555;28;20201;-72
2020/12/25 11:32:59;;;;;;;5.63;2.80;;;23.00;54.30;;;;;;5093574;28;20238;-72
2020/12/25 11:35:25;;;;;;;3.13;2.83;;;23.00;54.20;;;;;;5093603;28;20170;-73
2020/12/25 11:37:51;;;;;;;3.17;2.40;;;23.00;54.20;;;;;;5092298;28;20660;-72
2020/12/25 11:40:16;;;;;;;3.87;2.80;;;23.00;54.20;;;;;;5093853;28;20215;-69
2020/12/25 11:42:42;;;;;;;3.63;2.57;;;23.00;54.20;;;;;;5093490;28;20532;-71
2020/12/25 11:45:07;;;;;;;5.30;2.80;;;23.00;54.30;;;;;;5092639;28;20209;-74
2020/12/25 11:47:33;;;;;;;3.70;2.50;;;23.00;54.20;;;;;;5092339;28;20796;-73
2020/12/25 11:49:59;;;;;;;3.60;2.50;;;23.00;54.20;;;;;;5092157;28;20265;-73
2020/12/25 11:52:30;;;;;;;5.53;2.70;;;23.00;54.80;;;;;;5092263;28;20178;-76
2020/12/25 11:54:56;;;;;;;4.70;2.60;;;23.00;54.20;;;;;;5092250;28;20158;-75
2020/12/25 11:57:21;;;;;;;5.00;2.20;;;23.00;54.20;;;;;;5092199;28;20426;-72
2020/12/25 11:59:47;;;;;;;2.60;2.30;;;23.00;54.20;;;;;;5092831;28;20188;-73
2020/12/25 12:02:12;;;;;;;4.03;2.93;;;23.00;54.20;;;;;;5093203;28;20185;-70
2020/12/25 12:04:38;;;;;;;3.40;2.50;;;23.00;54.20;;;;;;5093549;28;20190;-69
2020/12/25 12:07:03;;;;;;;7.67;3.63;;;23.00;54.70;;;;;;5093049;28;20196;-70
2020/12/25 12:09:29;;;;;;;4.30;3.20;;;22.90;53.70;;;;;;5091856;28;20178;-70
2020/12/25 12:11:55;;;;;;;2.90;2.30;;;22.90;53.20;;;;;;5093356;28;20622;-70
2020/12/25 12:14:21;;;;;;;4.83;1.90;;;22.80;52.60;;;;;;5093106;28;20538;-70
2020/12/25 12:16:46;;;;;;;2.73;2.10;;;22.80;52.40;;;;;;5093386;28;20189;-70
2020/12/25 12:19:13;;;;;;;5.00;2.10;;;22.80;52.50;;;;;;5093138;28;20879;-73
2020/12/25 12:21:39;;;;;;;5.90;2.10;;;22.80;52.70;;;;;;5093132;28;20181;-70
2020/12/25 12:24:05;;;;;;;4.30;2.03;;;22.80;52.80;;;;;;5096415;28;20419;-70
2020/12/25 12:26:30;;;;;;;1.80;1.60;;;22.80;52.90;;;;;;5097259;28;20209;-73
2020/12/25 12:28:56;;;;;;;2.43;2.00;;;22.80;53.00;;;;;;5097210;28;20181;-75
2020/12/25 12:31:21;;;;;;;3.07;2.20;;;22.80;53.10;;;;;;5097426;28;20189;-74
2020/12/25 12:33:48;;;;;;;4.80;1.97;;;22.80;53.20;;;;;;5097221;28;20197;-73
2020/12/25 12:36:13;;;;;;;2.47;1.80;;;22.80;53.30;;;;;;5097008;28;20276;-74
2020/12/25 12:38:40;;;;;;;3.53;2.10;;;22.80;53.40;;;;;;5097051;28;20436;-74
2020/12/25 12:41:06;;;;;;;4.53;2.10;;;22.80;54.10;;;;;;5097267;28;20234;-73
2020/12/25 12:43:31;;;;;;;2.87;1.93;;;22.80;53.60;;;;;;5097511;28;20392;-72
2020/12/25 12:45:57;;;;;;;2.93;2.00;;;22.80;53.60;;;;;;5096864;28;20292;-74